sensor_id;sensor_type;location;lat;lon;timestamp;pressure;altitude;pressure_sealevel;temperature;humidity
11523;BME280;70090;43.208;27.904;2023-09-19T00:48:30;101287.19;;;18.49;100.00
11523;BME280;70090;43.208;27.904;2023-09-19T00:50:59;101280.91;;;18.38;100.00
11523;BME280;70090;43.208;27.904;2023-09-19T00:53:30;101288.06;;;18.35;100.00
11523;BME280;70090;43.208;27.904;2023-09-19T00:55:59;101284.06;;;18.40;100.00
11523;BME280;70090;43.208;27.904;2023-09-19T00:58:26;101276.06;;;18.45;100.00
11523;BME280;70090;43.208;27.904;2023-09-19T01:00:58;101278.47;;;18.43;100.00
11523;BME280;70090;43.208;27.904;2023-09-19T01:03:25;101272.84;;;18.47;100.00
11523;BME280;70090;43.208;27.904;2023-09-19T01:05:53;101280.81;;;18.45;100.00
11523;BME280;70090;43.208;27.904;2023-09-19T01:08:20;101280.91;;;18.38;100.00
11523;BME280;70090;43.208;27.904;2023-09-19T01:10:52;101286.50;;;18.31;100.00
11523;BME280;70090;43.208;27.904;2023-09-19T01:13:26;101281.78;;;18.21;100.00
11523;BME280;70090;43.208;27.904;2023-09-19T01:16:03;101275.44;;;18.20;100.00
11523;BME280;70090;43.208;27.904;2023-09-19T01:18:40;101276.66;;;18.16;100.00
11523;BME280;70090;43.208;27.904;2023-09-19T01:21:17;101273.06;;;18.12;100.00
11523;BME280;70090;43.208;27.904;2023-09-19T01:24:10;101272.22;;;18.18;100.00
11523;BME280;70090;43.208;27.904;2023-09-19T01:27:02;101269.03;;;18.20;100.00
11523;BME280;70090;43.208;27.904;2023-09-19T01:29:37;101267.47;;;18.19;100.00
11523;BME280;70090;43.208;27.904;2023-09-19T01:32:08;101263.88;;;18.15;100.00
11523;BME280;70090;43.208;27.904;2023-09-19T01:34:46;101258.75;;;18.13;100.00
11523;BME280;70090;43.208;27.904;2023-09-19T01:37:14;101267.47;;;18.15;100.00
11523;BME280;70090;43.208;27.904;2023-09-19T01:39:46;101267.84;;;18.21;100.00
11523;BME280;70090;43.208;27.904;2023-09-19T01:42:21;101261.16;;;18.11;100.00
11523;BME280;70090;43.208;27.904;2023-09-19T01:44:57;101261.09;;;18.15;100.00
11523;BME280;70090;43.208;27.904;2023-09-19T01:47:32;101269.06;;;18.16;100.00
11523;BME280;70090;43.208;27.904;2023-09-19T01:50:09;101269.16;;;18.06;100.00
11523;BME280;70090;43.208;27.904;2023-09-19T01:52:45;101270.81;;;17.93;100.00
11523;BME280;70090;43.208;27.904;2023-09-19T01:55:14;101270.00;;;17.99;100.00
11523;BME280;70090;43.208;27.904;2023-09-19T01:57:49;101268.38;;;17.98;100.00
11523;BME280;70090;43.208;27.904;2023-09-19T02:00:19;101273.59;;;17.93;100.00
11523;BME280;70090;43.208;27.904;2023-09-19T02:02:50;101274.78;;;17.92;100.00
11523;BME280;70090;43.208;27.904;2023-09-19T02:05:22;101270.47;;;17.84;100.00
11523;BME280;70090;43.208;27.904;2023-09-19T02:07:51;101263.81;;;17.64;100.00
11523;BME280;70090;43.208;27.904;2023-09-19T02:10:18;101276.47;;;17.72;100.00
11523;BME280;70090;43.208;27.904;2023-09-19T02:12:45;101275.72;;;17.68;100.00
11523;BME280;70090;43.208;27.904;2023-09-19T02:15:13;101277.72;;;17.67;100.00
11523;BME280;70090;43.208;27.904;2023-09-19T02:17:41;101268.97;;;17.65;100.00
11523;BME280;70090;43.208;27.904;2023-09-19T02:20:10;101271.78;;;17.62;100.00
11523;BME280;70090;43.208;27.904;2023-09-19T02:22:40;101269.81;;;17.56;100.00
11523;BME280;70090;43.208;27.904;2023-09-19T02:25:08;101269.03;;;17.55;100.00
11523;BME280;70090;43.208;27.904;2023-09-19T02:27:35;101267.06;;;17.52;100.00
11523;BME280;70090;43.208;27.904;2023-09-19T02:30:03;101270.25;;;17.47;100.00
11523;BME280;70090;43.208;27.904;2023-09-19T02:32:31;101268.66;;;17.46;100.00
11523;BME280;70090;43.208;27.904;2023-09-19T02:35:01;101267.06;;;17.45;100.00
11523;BME280;70090;43.208;27.904;2023-09-19T02:37:31;101261.50;;;17.49;100.00
11523;BME280;70090;43.208;27.904;2023-09-19T02:39:59;101262.66;;;17.51;100.00
11523;BME280;70090;43.208;27.904;2023-09-19T02:42:26;101258.72;;;17.52;100.00
11523;BME280;70090;43.208;27.904;2023-09-19T02:44:53;101261.50;;;17.52;100.00
11523;BME280;70090;43.208;27.904;2023-09-19T02:47:20;101256.34;;;17.44;100.00
11523;BME280;70090;43.208;27.904;2023-09-19T02:49:47;101259.94;;;17.48;100.00
11523;BME280;70090;43.208;27.904;2023-09-19T02:52:14;101255.16;;;17.45;100.00
11523;BME280;70090;43.208;27.904;2023-09-19T02:54:42;101257.16;;;17.37;100.00
11523;BME280;70090;43.208;27.904;2023-09-19T02:57:10;101253.59;;;17.33;100.00
11523;BME280;70090;43.208;27.904;2023-09-19T02:59:39;101256.00;;;17.24;100.00
11523;BME280;70090;43.208;27.904;2023-09-19T03:02:07;101263.97;;;17.22;100.00
11523;BME280;70090;43.208;27.904;2023-09-19T03:04:35;101254.41;;;17.20;100.00
11523;BME280;70090;43.208;27.904;2023-09-19T03:07:02;101238.56;;;17.13;100.00
11523;BME280;70090;43.208;27.904;2023-09-19T03:09:29;101244.13;;;17.13;100.00
11523;BME280;70090;43.208;27.904;2023-09-19T03:11:58;101251.25;;;17.14;100.00
11523;BME280;70090;43.208;27.904;2023-09-19T03:14:26;101256.75;;;17.28;100.00
11523;BME280;70090;43.208;27.904;2023-09-19T03:16:55;101252.78;;;17.43;100.00
11523;BME280;70090;43.208;27.904;2023-09-19T03:19:22;101255.09;;;17.62;100.00
11523;BME280;70090;43.208;27.904;2023-09-19T03:21:49;101257.34;;;17.81;100.00
11523;BME280;70090;43.208;27.904;2023-09-19T03:24:16;101262.88;;;17.88;100.00
11523;BME280;70090;43.208;27.904;2023-09-19T03:26:43;101268.81;;;17.97;100.00
11523;BME280;70090;43.208;27.904;2023-09-19T03:29:12;101264.72;;;18.12;100.00
11523;BME280;70090;43.208;27.904;2023-09-19T03:31:39;101273.84;;;18.16;100.00
11523;BME280;70090;43.208;27.904;2023-09-19T03:34:06;101269.47;;;18.15;100.00
11523;BME280;70090;43.208;27.904;2023-09-19T03:36:34;101277.78;;;18.29;100.00
11523;BME280;70090;43.208;27.904;2023-09-19T03:39:01;101273.03;;;18.22;100.00
11523;BME280;70090;43.208;27.904;2023-09-19T03:41:30;101273.00;;;18.26;100.00
11523;BME280;70090;43.208;27.904;2023-09-19T03:43:58;101269.03;;;18.20;100.00
11523;BME280;70090;43.208;27.904;2023-09-19T03:46:27;101271.34;;;18.35;100.00
11523;BME280;70090;43.208;27.904;2023-09-19T03:48:54;101272.84;;;18.47;100.00
11523;BME280;70090;43.208;27.904;2023-09-19T03:51:21;101280.06;;;18.41;100.00
11523;BME280;70090;43.208;27.904;2023-09-19T03:53:48;101276.66;;;18.16;100.00
11523;BME280;70090;43.208;27.904;2023-09-19T03:56:15;101278.00;;;17.87;100.00
11523;BME280;70090;43.208;27.904;2023-09-19T03:58:43;101276.09;;;17.70;100.00
11523;BME280;70090;43.208;27.904;2023-09-19T04:01:10;101274.97;;;17.64;100.00
11523;BME280;70090;43.208;27.904;2023-09-19T04:03:39;101277.38;;;17.52;100.00
11523;BME280;70090;43.208;27.904;2023-09-19T04:06:13;101270.25;;;17.47;100.00
11523;BME280;70090;43.208;27.904;2023-09-19T04:08:40;101273.41;;;17.53;100.00
11523;BME280;70090;43.208;27.904;2023-09-19T04:17:45;101255.78;;;17.76;100.00
11523;BME280;70090;43.208;27.904;2023-09-19T04:20:14;101254.16;;;17.86;100.00
11523;BME280;70090;43.208;27.904;2023-09-19T04:22:41;101250.09;;;17.97;100.00
11523;BME280;70090;43.208;27.904;2023-09-19T04:25:08;101248.81;;;18.09;100.00
11523;BME280;70090;43.208;27.904;2023-09-19T04:27:35;101248.28;;;18.28;100.00
11523;BME280;70090;43.208;27.904;2023-09-19T04:30:04;101250.63;;;18.36;100.00
11523;BME280;70090;43.208;27.904;2023-09-19T04:32:35;101250.53;;;18.47;100.00
11523;BME280;70090;43.208;27.904;2023-09-19T04:35:04;101247.81;;;18.43;100.00
11523;BME280;70090;43.208;27.904;2023-09-19T04:37:37;101255.41;;;18.36;100.00
11523;BME280;70090;43.208;27.904;2023-09-19T04:40:06;101253.06;;;18.34;100.00
11523;BME280;70090;43.208;27.904;2023-09-19T04:42:38;101248.53;;;18.51;100.00
11523;BME280;70090;43.208;27.904;2023-09-19T04:45:06;101252.09;;;18.51;100.00
11523;BME280;70090;43.208;27.904;2023-09-19T04:47:35;101254.44;;;18.56;100.00
11523;BME280;70090;43.208;27.904;2023-09-19T04:50:08;101255.28;;;18.53;100.00
11523;BME280;70090;43.208;27.904;2023-09-19T04:52:40;101256.38;;;18.63;100.00
11523;BME280;70090;43.208;27.904;2023-09-19T04:55:10;101240.88;;;18.62;100.00
11523;BME280;70090;43.208;27.904;2023-09-19T04:57:43;101248.75;;;18.70;100.00
11523;BME280;70090;43.208;27.904;2023-09-19T05:00:12;101254.41;;;18.63;100.00
11523;BME280;70090;43.208;27.904;2023-09-19T05:02:40;101249.25;;;18.58;100.00
11523;BME280;70090;43.208;27.904;2023-09-19T05:05:08;101245.03;;;18.40;100.00
11523;BME280;70090;43.208;27.904;2023-09-19T05:07:36;101241.47;;;18.36;100.00
11523;BME280;70090;43.208;27.904;2023-09-19T05:10:06;101235.47;;;18.41;100.00
11523;BME280;70090;43.208;27.904;2023-09-19T05:12:33;101239.28;;;18.61;100.00
11523;BME280;70090;43.208;27.904;2023-09-19T05:15:01;101235.81;;;18.87;100.00
11523;BME280;70090;43.208;27.904;2023-09-19T05:17:29;101233.03;;;18.87;100.00
11523;BME280;70090;43.208;27.904;2023-09-19T05:19:56;101234.41;;;18.72;100.00
11523;BME280;70090;43.208;27.904;2023-09-19T05:22:23;101244.88;;;18.57;100.00
11523;BME280;70090;43.208;27.904;2023-09-19T05:24:51;101238.78;;;18.69;100.00
11523;BME280;70090;43.208;27.904;2023-09-19T05:27:20;101230.72;;;18.82;100.00
11523;BME280;70090;43.208;27.904;2023-09-19T05:29:47;101231.06;;;18.87;100.00
11523;BME280;70090;43.208;27.904;2023-09-19T05:32:14;101227.41;;;18.94;100.00
11523;BME280;70090;43.208;27.904;2023-09-19T05:34:41;101224.13;;;18.99;100.00
11523;BME280;70090;43.208;27.904;2023-09-19T05:37:08;101236.81;;;19.07;100.00
11523;BME280;70090;43.208;27.904;2023-09-19T05:39:35;101234.81;;;19.07;100.00
11523;BME280;70090;43.208;27.904;2023-09-19T05:42:03;101232.38;;;19.13;100.00
11523;BME280;70090;43.208;27.904;2023-09-19T05:44:31;101231.50;;;19.23;100.00
11523;BME280;70090;43.208;27.904;2023-09-19T05:46:58;101220.78;;;19.48;100.00
11523;BME280;70090;43.208;27.904;2023-09-19T05:49:25;101226.97;;;19.62;100.00
11523;BME280;70090;43.208;27.904;2023-09-19T05:51:53;101235.06;;;19.53;100.00
11523;BME280;70090;43.208;27.904;2023-09-19T05:54:21;101227.31;;;19.38;100.00
11523;BME280;70090;43.208;27.904;2023-09-19T05:56:50;101227.09;;;19.52;100.00
11523;BME280;70090;43.208;27.904;2023-09-19T05:59:18;101239.78;;;19.60;100.00
11523;BME280;70090;43.208;27.904;2023-09-19T06:01:46;101238.94;;;19.63;100.00
11523;BME280;70090;43.208;27.904;2023-09-19T06:04:13;101237.25;;;19.69;100.00
11523;BME280;70090;43.208;27.904;2023-09-19T06:06:40;101239.13;;;19.79;100.00
11523;BME280;70090;43.208;27.904;2023-09-19T06:09:08;101244.13;;;19.91;100.00
11523;BME280;70090;43.208;27.904;2023-09-19T06:11:35;101240.97;;;19.89;100.00
11523;BME280;70090;43.208;27.904;2023-09-19T06:14:03;101227.00;;;19.89;100.00
11523;BME280;70090;43.208;27.904;2023-09-19T06:16:30;101252.13;;;20.19;100.00
11523;BME280;70090;43.208;27.904;2023-09-19T06:18:59;101247.53;;;20.32;100.00
11523;BME280;70090;43.208;27.904;2023-09-19T06:21:26;101248.13;;;20.42;100.00
11523;BME280;70090;43.208;27.904;2023-09-19T06:23:53;101256.28;;;20.56;100.00
11523;BME280;70090;43.208;27.904;2023-09-19T06:26:20;101255.50;;;20.56;100.00
11523;BME280;70090;43.208;27.904;2023-09-19T06:28:48;101266.25;;;20.57;100.00
11523;BME280;70090;43.208;27.904;2023-09-19T06:31:15;101266.19;;;20.61;100.00
11523;BME280;70090;43.208;27.904;2023-09-19T06:33:42;101259.00;;;20.83;100.00
11523;BME280;70090;43.208;27.904;2023-09-19T06:36:11;101270.81;;;20.94;100.00
11523;BME280;70090;43.208;27.904;2023-09-19T06:38:38;101263.94;;;20.98;100.00
11523;BME280;70090;43.208;27.904;2023-09-19T06:41:06;101265.03;;;21.04;100.00
11523;BME280;70090;43.208;27.904;2023-09-19T06:43:34;101269.16;;;21.19;100.00
11523;BME280;70090;43.208;27.904;2023-09-19T06:46:01;101269.59;;;21.37;100.00
11523;BME280;70090;43.208;27.904;2023-09-19T06:48:29;101267.38;;;21.48;100.00
11523;BME280;70090;43.208;27.904;2023-09-19T06:50:57;101273.09;;;21.61;100.00
11523;BME280;70090;43.208;27.904;2023-09-19T06:53:31;101276.25;;;21.82;100.00
11523;BME280;70090;43.208;27.904;2023-09-19T06:56:00;101276.50;;;22.07;100.00
11523;BME280;70090;43.208;27.904;2023-09-19T06:58:27;101273.38;;;22.21;100.00
11523;BME280;70090;43.208;27.904;2023-09-19T07:00:54;101271.00;;;22.20;100.00
11523;BME280;70090;43.208;27.904;2023-09-19T07:03:21;101280.34;;;22.49;100.00
11523;BME280;70090;43.208;27.904;2023-09-19T07:05:51;101269.38;;;22.70;100.00
11523;BME280;70090;43.208;27.904;2023-09-19T07:08:18;101262.69;;;22.96;100.00
11523;BME280;70090;43.208;27.904;2023-09-19T07:10:47;101277.66;;;23.05;100.00
11523;BME280;70090;43.208;27.904;2023-09-19T07:13:15;101263.94;;;23.23;100.00
11523;BME280;70090;43.208;27.904;2023-09-19T07:15:43;101263.31;;;23.32;100.00
11523;BME280;70090;43.208;27.904;2023-09-19T07:18:13;101274.50;;;23.48;100.00
11523;BME280;70090;43.208;27.904;2023-09-19T07:20:42;101269.81;;;23.70;100.00
11523;BME280;70090;43.208;27.904;2023-09-19T07:23:15;101269.81;;;23.82;100.00
11523;BME280;70090;43.208;27.904;2023-09-19T07:25:43;101271.88;;;23.94;100.00
11523;BME280;70090;43.208;27.904;2023-09-19T07:28:13;101270.47;;;24.15;100.00
11523;BME280;70090;43.208;27.904;2023-09-19T07:30:40;101264.72;;;24.18;100.00
11523;BME280;70090;43.208;27.904;2023-09-19T07:33:07;101270.44;;;24.40;100.00
11523;BME280;70090;43.208;27.904;2023-09-19T07:35:36;101267.88;;;24.58;100.00
11523;BME280;70090;43.208;27.904;2023-09-19T07:38:05;101264.25;;;24.32;100.00
11523;BME280;70090;43.208;27.904;2023-09-19T07:40:32;101267.75;;;24.24;100.00
11523;BME280;70090;43.208;27.904;2023-09-19T07:42:59;101261.44;;;24.32;100.00
11523;BME280;70090;43.208;27.904;2023-09-19T07:45:28;101268.88;;;24.51;100.00
11523;BME280;70090;43.208;27.904;2023-09-19T07:47:55;101271.53;;;24.80;100.00
11523;BME280;70090;43.208;27.904;2023-09-19T07:50:24;101261.81;;;24.93;100.00
11523;BME280;70090;43.208;27.904;2023-09-19T07:52:52;101251.16;;;25.10;95.07
11523;BME280;70090;43.208;27.904;2023-09-19T07:55:20;101258.78;;;25.43;91.68
11523;BME280;70090;43.208;27.904;2023-09-19T07:57:49;101258.97;;;25.70;87.70
11523;BME280;70090;43.208;27.904;2023-09-19T08:00:16;101243.81;;;25.77;87.69
11523;BME280;70090;43.208;27.904;2023-09-19T08:02:44;101250.50;;;25.91;87.30
11523;BME280;70090;43.208;27.904;2023-09-19T08:05:13;101242.66;;;25.87;87.60
11523;BME280;70090;43.208;27.904;2023-09-19T08:07:44;101250.50;;;25.91;87.07
11523;BME280;70090;43.208;27.904;2023-09-19T08:10:14;101250.75;;;25.84;85.36
11523;BME280;70090;43.208;27.904;2023-09-19T08:12:46;101250.22;;;25.98;84.84
11523;BME280;70090;43.208;27.904;2023-09-19T08:15:14;101246.81;;;26.12;83.79
11523;BME280;70090;43.208;27.904;2023-09-19T08:17:43;101245.78;;;26.28;82.03
11523;BME280;70090;43.208;27.904;2023-09-19T08:20:11;101246.56;;;26.19;80.62
11523;BME280;70090;43.208;27.904;2023-09-19T08:22:43;101250.66;;;26.27;79.77
11523;BME280;70090;43.208;27.904;2023-09-19T08:25:12;101243.50;;;26.35;81.26
11523;BME280;70090;43.208;27.904;2023-09-19T08:27:38;101248.38;;;26.44;79.57
11523;BME280;70090;43.208;27.904;2023-09-19T08:30:06;101244.72;;;26.34;78.95
11523;BME280;70090;43.208;27.904;2023-09-19T08:32:33;101243.22;;;26.51;79.33
11523;BME280;70090;43.208;27.904;2023-09-19T08:35:02;101243.13;;;26.64;79.25
11523;BME280;70090;43.208;27.904;2023-09-19T08:37:30;101232.59;;;26.64;78.11
11523;BME280;70090;43.208;27.904;2023-09-19T08:39:57;101244.53;;;26.68;76.66
11523;BME280;70090;43.208;27.904;2023-09-19T08:42:24;101236.03;;;26.77;78.85
11523;BME280;70090;43.208;27.904;2023-09-19T08:44:51;101231.38;;;26.92;76.86
11523;BME280;70090;43.208;27.904;2023-09-19T08:47:26;101229.81;;;27.00;74.75
11523;BME280;70090;43.208;27.904;2023-09-19T08:50:11;101226.19;;;27.09;74.52
11523;BME280;70090;43.208;27.904;2023-09-19T08:52:42;101224.16;;;27.27;71.82
11523;BME280;70090;43.208;27.904;2023-09-19T08:55:12;101220.06;;;27.37;69.73
11523;BME280;70090;43.208;27.904;2023-09-19T08:57:46;101220.22;;;27.34;68.15
11523;BME280;70090;43.208;27.904;2023-09-19T09:00:16;101215.53;;;27.31;69.63
11523;BME280;70090;43.208;27.904;2023-09-19T09:02:46;101219.59;;;27.39;68.66
11523;BME280;70090;43.208;27.904;2023-09-19T09:05:16;101212.53;;;27.43;66.06
11523;BME280;70090;43.208;27.904;2023-09-19T09:07:49;101203.69;;;27.50;66.48
11523;BME280;70090;43.208;27.904;2023-09-19T09:10:17;101212.81;;;27.54;69.88
11523;BME280;70090;43.208;27.904;2023-09-19T09:12:48;101211.34;;;27.68;69.11
11523;BME280;70090;43.208;27.904;2023-09-19T09:15:15;101206.72;;;27.47;68.24
11523;BME280;70090;43.208;27.904;2023-09-19T09:17:46;101196.47;;;27.58;68.05
11523;BME280;70090;43.208;27.904;2023-09-19T09:20:17;101201.78;;;27.65;68.26
11523;BME280;70090;43.208;27.904;2023-09-19T09:22:51;101201.22;;;27.43;68.87
11523;BME280;70090;43.208;27.904;2023-09-19T09:25:20;101193.72;;;27.13;71.19
11523;BME280;70090;43.208;27.904;2023-09-19T09:27:59;101194.31;;;27.08;71.58
11523;BME280;70090;43.208;27.904;2023-09-19T09:30:34;101195.44;;;27.29;70.49
11523;BME280;70090;43.208;27.904;2023-09-19T09:33:09;101205.47;;;27.39;68.74
11523;BME280;70090;43.208;27.904;2023-09-19T09:35:47;101198.41;;;27.34;69.81
11523;BME280;70090;43.208;27.904;2023-09-19T09:38:17;101202.97;;;27.32;70.25
11523;BME280;70090;43.208;27.904;2023-09-19T09:40:49;101196.50;;;27.40;70.20
11523;BME280;70090;43.208;27.904;2023-09-19T09:43:27;101202.72;;;27.62;70.01
11523;BME280;70090;43.208;27.904;2023-09-19T09:46:12;101183.84;;;27.68;70.29
11523;BME280;70090;43.208;27.904;2023-09-19T09:48:56;101183.06;;;27.68;70.49
11523;BME280;70090;43.208;27.904;2023-09-19T09:51:59;101171.91;;;27.73;70.36
11523;BME280;70090;43.208;27.904;2023-09-19T09:54:31;101178.50;;;27.79;69.29
11523;BME280;70090;43.208;27.904;2023-09-19T09:57:03;101161.53;;;27.79;68.96
11523;BME280;70090;43.208;27.904;2023-09-19T09:59:52;101174.69;;;27.91;68.21
11523;BME280;70090;43.208;27.904;2023-09-19T10:02:24;101177.16;;;27.98;67.45
11523;BME280;70090;43.208;27.904;2023-09-19T10:04:55;101165.09;;;27.89;68.17
11523;BME280;70090;43.208;27.904;2023-09-19T10:07:41;101169.97;;;27.88;69.49
11523;BME280;70090;43.208;27.904;2023-09-19T10:10:15;101168.59;;;27.84;70.27
11523;BME280;70090;43.208;27.904;2023-09-19T10:12:47;101175.06;;;27.66;70.48
11523;BME280;70090;43.208;27.904;2023-09-19T10:15:16;101168.47;;;27.60;70.99
11523;BME280;70090;43.208;27.904;2023-09-19T10:17:46;101172.81;;;27.88;69.53
11523;BME280;70090;43.208;27.904;2023-09-19T10:20:15;101168.25;;;27.91;67.13
11523;BME280;70090;43.208;27.904;2023-09-19T10:22:52;101163.06;;;27.89;67.27
11523;BME280;70090;43.208;27.904;2023-09-19T10:25:27;101162.38;;;27.94;68.62
11523;BME280;70090;43.208;27.904;2023-09-19T10:27:56;101157.34;;;27.98;68.64
11523;BME280;70090;43.208;27.904;2023-09-19T10:30:24;101161.34;;;28.15;68.29
11523;BME280;70090;43.208;27.904;2023-09-19T10:32:59;101165.03;;;28.30;67.63
11523;BME280;70090;43.208;27.904;2023-09-19T10:35:27;101156.84;;;28.32;67.25
11523;BME280;70090;43.208;27.904;2023-09-19T10:37:59;101154.34;;;28.34;68.46
11523;BME280;70090;43.208;27.904;2023-09-19T10:40:27;101156.53;;;28.39;67.75
11523;BME280;70090;43.208;27.904;2023-09-19T10:43:01;101154.69;;;28.27;67.75
11523;BME280;70090;43.208;27.904;2023-09-19T10:45:33;101157.47;;;28.36;68.83
11523;BME280;70090;43.208;27.904;2023-09-19T10:48:01;101148.66;;;28.58;67.17
11523;BME280;70090;43.208;27.904;2023-09-19T10:50:32;101144.31;;;28.71;67.24
11523;BME280;70090;43.208;27.904;2023-09-19T10:53:04;101142.72;;;28.93;66.64
11523;BME280;70090;43.208;27.904;2023-09-19T10:55:34;101130.38;;;28.82;65.97
11523;BME280;70090;43.208;27.904;2023-09-19T10:58:02;101126.91;;;29.01;66.43
11523;BME280;70090;43.208;27.904;2023-09-19T11:00:51;101130.72;;;29.27;65.22
11523;BME280;70090;43.208;27.904;2023-09-19T11:03:19;101133.44;;;29.22;64.96
11523;BME280;70090;43.208;27.904;2023-09-19T11:06:09;101126.72;;;29.34;65.00
11523;BME280;70090;43.208;27.904;2023-09-19T11:08:58;101127.59;;;29.40;65.28
11523;BME280;70090;43.208;27.904;2023-09-19T11:11:44;101123.38;;;29.21;65.56
11523;BME280;70090;43.208;27.904;2023-09-19T11:14:15;101122.41;;;28.95;66.54
11523;BME280;70090;43.208;27.904;2023-09-19T11:20:22;101115.91;;;28.80;68.15
11523;BME280;70090;43.208;27.904;2023-09-19T11:23:18;101106.78;;;28.99;67.52
11523;BME280;70090;43.208;27.904;2023-09-19T11:25:50;101106.38;;;28.92;67.64
11523;BME280;70090;43.208;27.904;2023-09-19T11:28:32;101107.31;;;28.89;67.67
11523;BME280;70090;43.208;27.904;2023-09-19T11:40:47;101114.94;;;28.45;71.55
11523;BME280;70090;43.208;27.904;2023-09-19T11:43:35;101109.03;;;28.34;72.76
11523;BME280;70090;43.208;27.904;2023-09-19T11:46:08;101105.38;;;28.57;73.46
11523;BME280;70090;43.208;27.904;2023-09-19T11:48:38;101107.47;;;28.57;72.67
11523;BME280;70090;43.208;27.904;2023-09-19T11:51:14;101107.81;;;28.50;72.58
11523;BME280;70090;43.208;27.904;2023-09-19T11:53:49;101098.13;;;28.42;72.85
11523;BME280;70090;43.208;27.904;2023-09-19T11:56:18;101097.28;;;28.50;72.68
11523;BME280;70090;43.208;27.904;2023-09-19T11:58:49;101080.53;;;28.75;71.08
11523;BME280;70090;43.208;27.904;2023-09-19T12:01:23;101085.63;;;28.86;70.38
11523;BME280;70090;43.208;27.904;2023-09-19T12:03:54;101078.47;;;28.76;70.79
11523;BME280;70090;43.208;27.904;2023-09-19T12:06:23;101080.66;;;28.95;70.50
11523;BME280;70090;43.208;27.904;2023-09-19T12:08:50;101075.69;;;29.19;69.76
11523;BME280;70090;43.208;27.904;2023-09-19T12:11:21;101080.66;;;29.10;69.00
11523;BME280;70090;43.208;27.904;2023-09-19T12:13:51;101078.16;;;29.12;69.98
11523;BME280;70090;43.208;27.904;2023-09-19T12:16:20;101074.53;;;29.11;69.82
11523;BME280;70090;43.208;27.904;2023-09-19T12:18:50;101079.41;;;29.11;69.39
11523;BME280;70090;43.208;27.904;2023-09-19T12:21:27;101076.03;;;28.83;69.30
11523;BME280;70090;43.208;27.904;2023-09-19T12:24:04;101072.25;;;28.34;71.43
11523;BME280;70090;43.208;27.904;2023-09-19T12:26:39;101073.06;;;28.26;70.72
11523;BME280;70090;43.208;27.904;2023-09-19T12:29:13;101072.78;;;28.24;71.29
11523;BME280;70090;43.208;27.904;2023-09-19T12:31:53;101061.31;;;28.42;71.79
11523;BME280;70090;43.208;27.904;2023-09-19T12:34:24;101070.94;;;28.59;72.10
11523;BME280;70090;43.208;27.904;2023-09-19T12:37:06;101062.16;;;28.71;71.85
11523;BME280;70090;43.208;27.904;2023-09-19T12:39:38;101067.03;;;28.70;71.09
11523;BME280;70090;43.208;27.904;2023-09-19T12:42:08;101062.38;;;28.82;70.77
11523;BME280;70090;43.208;27.904;2023-09-19T12:44:37;101057.28;;;28.86;69.90
11523;BME280;70090;43.208;27.904;2023-09-19T12:47:09;101058.47;;;28.79;70.21
11523;BME280;70090;43.208;27.904;2023-09-19T12:50:09;101060.59;;;28.70;70.85
11523;BME280;70090;43.208;27.904;2023-09-19T12:52:41;101062.63;;;28.32;72.30
11523;BME280;70090;43.208;27.904;2023-09-19T12:55:19;101055.31;;;28.02;72.94
11523;BME280;70090;43.208;27.904;2023-09-19T12:57:56;101052.03;;;27.71;73.98
11523;BME280;70090;43.208;27.904;2023-09-19T13:00:33;101047.13;;;27.71;74.20
11523;BME280;70090;43.208;27.904;2023-09-19T13:03:15;101042.34;;;28.10;73.55
11523;BME280;70090;43.208;27.904;2023-09-19T13:05:51;101041.59;;;28.47;72.48
11523;BME280;70090;43.208;27.904;2023-09-19T13:08:21;101046.53;;;28.90;71.99
11523;BME280;70090;43.208;27.904;2023-09-19T13:11:03;101052.50;;;29.21;71.04
11523;BME280;70090;43.208;27.904;2023-09-19T13:13:32;101044.34;;;29.43;69.76
11523;BME280;70090;43.208;27.904;2023-09-19T13:16:03;101047.44;;;29.74;67.92
11523;BME280;70090;43.208;27.904;2023-09-19T13:18:42;101049.13;;;30.20;65.84
11523;BME280;70090;43.208;27.904;2023-09-19T13:21:10;101048.88;;;30.44;64.67
11523;BME280;70090;43.208;27.904;2023-09-19T13:23:42;101044.38;;;30.77;63.82
11523;BME280;70090;43.208;27.904;2023-09-19T13:26:09;101043.81;;;30.99;62.74
11523;BME280;70090;43.208;27.904;2023-09-19T13:28:37;101043.53;;;30.97;62.02
11523;BME280;70090;43.208;27.904;2023-09-19T13:31:06;101043.25;;;30.95;62.17
11523;BME280;70090;43.208;27.904;2023-09-19T13:33:34;101046.81;;;30.90;62.53
11523;BME280;70090;43.208;27.904;2023-09-19T13:36:01;101043.16;;;30.84;62.79
11523;BME280;70090;43.208;27.904;2023-09-19T13:38:29;101048.72;;;30.73;63.67
11523;BME280;70090;43.208;27.904;2023-09-19T13:40:56;101046.63;;;30.28;64.43
11523;BME280;70090;43.208;27.904;2023-09-19T13:43:26;101048.38;;;29.85;65.91
11523;BME280;70090;43.208;27.904;2023-09-19T13:45:54;101058.50;;;30.06;66.27
11523;BME280;70090;43.208;27.904;2023-09-19T13:48:24;101055.72;;;30.12;65.26
11523;BME280;70090;43.208;27.904;2023-09-19T13:50:51;101050.19;;;30.23;64.03
11523;BME280;70090;43.208;27.904;2023-09-19T13:53:18;101052.00;;;30.46;63.56
11523;BME280;70090;43.208;27.904;2023-09-19T13:55:45;101045.72;;;30.16;61.88
11523;BME280;70090;43.208;27.904;2023-09-19T13:58:14;101044.78;;;30.05;61.69
11523;BME280;70090;43.208;27.904;2023-09-19T14:00:40;101036.34;;;29.56;62.37